Time;durP1;ratioP1;P1;durP2;ratioP2;P2;SDS_P1;SDS_P2;PMS_P1;PMS_P2;Temp;Humidity;BMP_temperature;BMP_pressure;BME280_temperature;BME280_humidity;BME280_pressure;Samples;Min_cycle;Max_cycle;Signal;HPM_P1;HPM_P2
2023/02/15 00:01:50;;;;;;;9.10;1.80;;;;;;;-145.69;100.00;52606.78;5114643;28;20316;-83
2023/02/15 00:04:18;;;;;;;2.97;1.77;;;;;;;-145.69;100.00;52610.75;5114642;28;20205;-84
2023/02/15 00:06:45;;;;;;;3.47;1.70;;;;;;;-145.69;100.00;52583.00;5094384;28;20226;-83
2023/02/15 00:09:12;;;;;;;2.57;1.60;;;;;;;-145.69;100.00;52590.94;5094054;28;20202;-82
2023/02/15 00:11:49;;;;;;;2.80;1.20;;;;;;;-145.69;100.00;52586.97;5092867;28;20227;-83
2023/02/15 00:14:22;;;;;;;2.67;1.73;;;;;;;-145.69;100.00;52585.00;5096766;28;20194;-83
2023/02/15 00:16:51;;;;;;;3.50;1.80;;;;;;;-145.69;100.00;52620.66;5111710;28;20204;-83
2023/02/15 00:19:22;;;;;;;3.10;1.50;;;;;;;-145.69;100.00;52602.81;5114307;28;20197;-84
2023/02/15 00:21:51;;;;;;;3.67;1.47;;;;;;;-145.69;100.00;52622.63;5114238;28;20229;-83
2023/02/15 00:24:20;;;;;;;2.50;1.60;;;;;;;-145.69;100.00;52600.84;5114243;28;20671;-83
2023/02/15 00:26:48;;;;;;;2.50;1.50;;;;;;;-145.69;100.00;52583.00;5114217;28;20205;-83
2023/02/15 00:29:20;;;;;;;3.97;1.90;;;;;;;-145.69;100.00;52628.56;5106368;28;20194;-83
2023/02/15 00:31:46;;;;;;;2.43;1.50;;;;;;;-145.69;100.00;52592.91;5093763;28;20302;-83
2023/02/15 00:34:15;;;;;;;3.10;1.57;;;;;;;-145.69;100.00;52622.63;5093152;28;20199;-83
2023/02/15 00:36:42;;;;;;;4.17;1.70;;;;;;;-145.69;100.00;52590.94;5091020;28;20229;-83
2023/02/15 00:39:14;;;;;;;2.67;1.67;;;;;;;-145.69;100.00;52634.50;5093647;28;20617;-82
2023/02/15 00:41:43;;;;;;;2.80;1.67;;;;;;;-145.69;100.00;52567.16;5093159;28;20233;-82
2023/02/15 00:44:10;;;;;;;2.13;1.30;;;;;;;-145.69;100.00;52618.66;5096074;28;20202;-82
2023/02/15 00:46:38;;;;;;;2.20;1.67;;;;;;;-145.69;100.00;52586.97;5113953;28;20204;-83
2023/02/15 00:49:05;;;;;;;2.70;1.43;;;;;;;-145.69;98.81;52563.22;5114975;28;20208;-82
2023/02/15 00:51:34;;;;;;;3.70;1.70;;;;;;;-145.69;89.97;52590.94;5117086;28;20209;-83
2023/02/15 00:54:01;;;;;;;2.13;1.60;;;;;;;-145.69;90.71;52594.91;5104133;28;20223;-82
2023/02/15 00:56:28;;;;;;;1.50;1.20;;;;;;;-145.69;91.80;52594.91;5117698;28;20200;-82
2023/02/15 00:58:54;;;;;;;2.70;1.50;;;;;;;-145.69;96.61;52610.75;5117428;28;20201;-82
2023/02/15 01:01:23;;;;;;;4.93;1.80;;;;;;;-145.69;99.79;52563.22;5117682;28;20243;-83
2023/02/15 01:03:52;;;;;;;2.07;1.50;;;;;;;-145.69;95.82;52590.94;5117886;28;20197;-83
2023/02/15 01:06:19;;;;;;;3.37;1.70;;;;;;;-145.69;97.64;52565.19;5102165;28;20198;-82
2023/02/15 01:08:46;;;;;;;2.10;1.53;;;;;;;-145.69;98.33;52588.97;5097206;28;20202;-82
2023/02/15 01:11:14;;;;;;;3.20;1.50;;;;;;;-145.69;100.00;52583.00;5096955;28;20193;-82
2023/02/15 01:13:43;;;;;;;5.23;2.07;;;;;;;-145.69;100.00;52600.84;5097751;28;20273;-81
2023/02/15 01:16:09;;;;;;;2.60;1.50;;;;;;;-145.69;98.01;52602.81;5097101;28;20209;-83
2023/02/15 01:18:36;;;;;;;2.23;1.30;;;;;;;-145.69;100.00;52602.81;5096638;28;20721;-82
2023/02/15 01:21:16;;;;;;;6.33;2.20;;;;;;;-145.69;96.48;52598.84;5096870;28;20243;-82
2023/02/15 01:23:45;;;;;;;6.63;1.90;;;;;;;-145.69;97.23;52583.00;5112723;28;20721;-82
2023/02/15 01:26:12;;;;;;;3.73;1.70;;;;;;;-145.69;98.20;52559.25;5115568;28;20284;-82
2023/02/15 01:28:39;;;;;;;3.00;1.57;;;;;;;-145.69;98.97;52586.97;5116620;28;20193;-83
2023/02/15 01:31:07;;;;;;;5.37;1.73;;;;;;;-145.69;100.00;52602.81;5117100;28;20201;-82
2023/02/15 01:33:34;;;;;;;3.07;1.30;;;;;;;-145.69;100.00;52600.84;5116812;28;20201;-82
2023/02/15 01:36:03;;;;;;;2.80;1.60;;;;;;;-145.69;98.79;52616.69;5106583;28;20198;-82
2023/02/15 01:38:37;;;;;;;1.40;1.20;;;;;;;-145.69;100.00;52579.06;5096360;28;20727;-82
2023/02/15 01:41:34;;;;;;;2.63;1.50;;;;;;;-145.69;100.00;52610.75;5096062;28;20608;-81
2023/02/15 01:44:03;;;;;;;2.40;1.40;;;;;;;-145.69;93.42;52579.06;5095271;28;20206;-82
2023/02/15 01:46:34;;;;;;;3.03;1.40;;;;;;;-145.69;95.48;52585.00;5094694;28;20201;-82
2023/02/15 01:49:04;;;;;;;2.63;1.67;;;;;;;-145.69;92.99;52598.84;5108745;28;20219;-82
2023/02/15 01:51:34;;;;;;;2.60;1.57;;;;;;;-145.69;92.73;52600.84;5115485;28;20236;-82
2023/02/15 01:54:10;;;;;;;1.73;1.40;;;;;;;-145.69;95.81;52610.75;5095198;28;20263;-81
2023/02/15 01:56:39;;;;;;;2.83;1.37;;;;;;;-145.69;95.97;52606.78;5094994;28;20564;-82
2023/02/15 01:59:09;;;;;;;2.70;1.40;;;;;;;-145.69;95.29;52608.75;5094670;28;20225;-82
2023/02/15 02:01:36;;;;;;;1.47;1.30;;;;;;;-145.69;95.09;52612.72;5114372;28;20224;-83
2023/02/15 02:04:09;;;;;;;3.43;1.60;;;;;;;-145.69;92.12;52620.66;5114988;28;20667;-82
2023/02/15 02:06:38;;;;;;;5.50;1.50;;;;;;;-145.69;91.47;52586.97;5115107;28;20204;-82
2023/02/15 02:09:06;;;;;;;1.40;1.23;;;;;;;-145.69;94.84;52575.09;5114880;28;20197;-82
2023/02/15 02:11:36;;;;;;;2.07;1.23;;;;;;;-145.69;90.75;52598.84;5114384;28;20206;-81
2023/02/15 02:14:03;;;;;;;2.00;1.40;;;;;;;-145.69;92.54;52569.16;5100681;28;20311;-82
2023/02/15 02:16:40;;;;;;;2.07;1.63;;;;;;;-145.69;93.97;52583.00;5114944;28;20200;-82
2023/02/15 02:19:44;;;;;;;3.37;1.60;;;;;;;-145.69;99.85;52588.97;5114846;28;20540;-81
2023/02/15 02:22:47;;;;;;;1.50;1.40;;;;;;;-145.69;95.57;52565.19;5112855;28;21524;-82
2023/02/15 02:25:49;;;;;;;4.57;1.33;;;;;;;-145.69;92.22;52606.78;5114488;28;20401;-82
2023/02/15 02:28:34;;;;;;;3.73;1.30;;;;;;;-145.69;93.17;52575.09;5096956;28;20391;-82
2023/02/15 02:31:29;;;;;;;2.57;1.37;;;;;;;-145.69;92.79;52543.41;5093967;28;20723;-82
2023/02/15 02:34:06;;;;;;;1.80;1.10;;;;;;;-145.69;92.03;52598.84;5094450;28;20293;-82
2023/02/15 02:36:42;;;;;;;1.63;1.37;;;;;;;-145.69;92.69;52541.44;5100685;28;20189;-81
2023/02/15 02:39:21;;;;;;;2.77;1.63;;;;;;;-145.69;91.09;52571.13;5114919;28;20205;-81
2023/02/15 02:41:59;;;;;;;2.43;1.40;;;;;;;-145.69;91.25;52588.97;5060076;28;1072028;-81
2023/02/15 02:44:35;;;;;;;2.40;1.53;;;;;;;-145.69;94.11;52583.00;5115691;27;20193;-82
2023/02/15 02:47:10;;;;;;;2.97;1.60;;;;;;;-145.69;93.94;52565.19;5094956;28;20207;-82
2023/02/15 02:49:50;;;;;;;2.80;1.37;;;;;;;-145.69;95.90;52592.91;5094449;28;20193;-79
2023/02/15 02:52:38;;;;;;;2.77;1.67;;;;;;;-145.69;95.11;52577.06;5095588;28;20194;-83
2023/02/15 02:55:07;;;;;;;1.87;1.33;;;;;;;-145.69;95.00;52626.59;5095537;28;20198;-82
2023/02/15 02:57:36;;;;;;;6.43;1.50;;;;;;;-145.69;93.43;52559.25;5094719;28;20198;-82
2023/02/15 03:00:08;;;;;;;2.27;1.47;;;;;;;-145.69;92.49;52575.09;5095223;28;20208;-81
2023/02/15 03:02:39;;;;;;;3.40;1.40;;;;;;;-145.69;88.34;52555.28;5094855;28;20226;-82
2023/02/15 03:05:12;;;;;;;3.00;1.30;;;;;;;-145.69;90.28;52551.31;5094657;28;20201;-82
2023/02/15 03:07:40;;;;;;;1.10;1.00;;;;;;;-145.69;88.18;52581.03;5094742;28;20205;-83
2023/02/15 03:10:10;;;;;;;1.97;1.37;;;;;;;-145.69;89.31;52541.44;5093590;28;20236;-82
2023/02/15 03:12:41;;;;;;;3.17;1.23;;;;;;;-145.69;88.23;52571.13;5093998;28;20572;-82
2023/02/15 03:15:15;;;;;;;2.03;1.23;;;;;;;-145.69;85.24;52565.19;5094900;28;20198;-82
2023/02/15 03:17:45;;;;;;;4.63;1.57;;;;;;;-145.69;87.80;52559.25;5094809;28;20309;-82
2023/02/15 03:20:21;;;;;;;1.67;1.30;;;;;;;-145.69;89.27;52579.06;5094620;28;20664;-81
2023/02/15 03:22:52;;;;;;;1.53;1.30;;;;;;;-145.69;93.36;52577.06;5094072;28;20684;-82
2023/02/15 03:25:22;;;;;;;2.03;1.40;;;;;;;-145.69;88.05;52640.44;5105936;28;20196;-82
2023/02/15 03:27:56;;;;;;;2.00;1.40;;;;;;;-145.69;87.73;52549.34;5115186;28;20202;-83
2023/02/15 03:30:26;;;;;;;3.27;1.13;;;;;;;-145.69;85.48;52573.13;5115042;28;20292;-83
2023/02/15 03:32:53;;;;;;;2.57;1.30;;;;;;;-145.69;85.66;52579.06;5114557;28;20197;-83
2023/02/15 03:35:25;;;;;;;3.13;1.30;;;;;;;-145.69;85.92;52559.25;5115040;28;20240;-84
2023/02/15 03:37:57;;;;;;;2.97;1.97;;;;;;;-145.69;85.94;52549.34;5114762;28;20266;-84
2023/02/15 03:43:22;;;;;;;1.83;1.13;;;;;;;-145.69;88.60;52563.22;5114011;28;20243;-83
2023/02/15 03:45:57;;;;;;;4.47;1.40;;;;;;;-145.69;88.85;52590.94;5094435;28;20289;-83
2023/02/15 03:48:29;;;;;;;2.17;1.30;;;;;;;-145.69;89.46;52555.28;5107330;28;20197;-82
2023/02/15 03:53:52;;;;;;;4.23;1.53;;;;;;;-145.69;85.07;52559.25;5097185;28;20270;-82
2023/02/15 03:56:20;;;;;;;2.20;1.20;;;;;;;-145.69;84.47;52565.19;5094210;28;20342;-83
2023/02/15 04:04:42;;;;;;;1.27;1.17;;;;;;;-145.69;83.16;52590.94;5152491;27;20543;-82
2023/02/15 04:07:12;;;;;;;3.27;1.47;;;;;;;-145.69;89.35;52559.25;5152614;27;20633;-83
2023/02/15 04:12:25;;;;;;;2.40;1.20;;;;;;;-145.69;91.68;52594.91;5152483;27;20223;-83
2023/02/15 04:17:37;;;;;;;6.93;1.50;;;;;;;-145.69;88.82;52600.84;5152302;27;20277;-83
2023/02/15 04:25:37;;;;;;;3.20;1.40;;;;;;;-145.69;79.80;52571.13;5152857;27;20555;-84
2023/02/15 04:28:04;;;;;;;1.77;1.40;;;;;;;-145.69;79.95;52594.91;5152390;27;20200;-84
2023/02/15 04:30:30;;;;;;;3.27;1.60;;;;;;;-145.69;83.95;52594.91;5151912;27;20192;-83
2023/02/15 04:32:57;;;;;;;2.67;1.50;;;;;;;-145.69;80.71;52567.16;5152086;27;20200;-84
2023/02/15 04:35:37;;;;;;;3.57;1.37;;;;;;;-145.69;80.91;52583.00;5151109;27;20227;-83
2023/02/15 04:38:03;;;;;;;1.70;1.20;;;;;;;-145.69;77.42;52608.75;5151796;27;20209;-83
2023/02/15 04:40:30;;;;;;;5.83;1.60;;;;;;;-145.69;88.89;52547.38;5151590;27;20200;-83
2023/02/15 04:42:57;;;;;;;2.37;1.43;;;;;;;-145.69;87.60;52600.84;5151599;27;20220;-82
2023/02/15 04:45:23;;;;;;;8.40;1.50;;;;;;;-145.69;88.93;52563.22;5149691;27;20196;-81
2023/02/15 04:47:50;;;;;;;4.33;1.10;;;;;;;-145.69;89.20;52586.97;5150008;27;20189;-83
2023/02/15 04:50:17;;;;;;;2.83;1.40;;;;;;;-145.69;92.45;52539.44;5151658;27;20188;-83
2023/02/15 04:52:46;;;;;;;2.13;1.40;;;;;;;-145.69;93.24;52586.97;5151816;27;20524;-83
2023/02/15 04:55:13;;;;;;;2.00;1.30;;;;;;;-145.69;93.99;52594.91;5151711;27;20192;-83
2023/02/15 04:57:40;;;;;;;1.53;1.07;;;;;;;-145.69;92.03;52579.06;5151726;27;20200;-84
2023/02/15 05:00:08;;;;;;;1.27;1.17;;;;;;;-145.69;86.51;52579.06;5151626;27;20185;-81
2023/02/15 05:02:35;;;;;;;1.30;1.20;;;;;;;-145.69;88.11;52557.28;5150632;27;20259;-82
2023/02/15 05:05:01;;;;;;;2.50;0.93;;;;;;;-145.69;87.50;52579.06;5151172;27;20200;-82
2023/02/15 05:07:33;;;;;;;4.03;1.30;;;;;;;-145.69;88.24;52585.00;5151309;27;20192;-82
2023/02/15 05:10:02;;;;;;;1.10;1.00;;;;;;;-145.69;86.20;52577.06;5151115;27;20196;-82
2023/02/15 05:12:29;;;;;;;1.43;1.07;;;;;;;-145.69;84.90;52567.16;5150691;27;20287;-84
2023/02/15 05:14:55;;;;;;;1.70;1.10;;;;;;;-145.69;85.52;52569.16;5143265;27;20204;-83
2023/02/15 05:17:25;;;;;;;5.67;1.10;;;;;;;-145.69;85.59;52579.06;5137772;27;20296;-84
2023/02/15 05:19:51;;;;;;;5.83;1.00;;;;;;;-145.69;87.72;52571.13;5137648;27;20643;-83
2023/02/15 05:22:18;;;;;;;1.00;0.87;;;;;;;-145.69;86.21;52583.00;5137303;27;20196;-83
2023/02/15 05:30:17;;;;;;;1.50;1.00;;;;;;;-145.69;89.26;52569.16;5137577;27;20196;-85
2023/02/15 05:32:43;;;;;;;1.63;1.10;;;;;;;-145.69;84.64;52557.28;5137273;27;20193;-84
2023/02/15 05:35:14;;;;;;;2.50;1.30;;;;;;;-145.69;83.73;52571.13;5137467;27;20643;-85
2023/02/15 05:37:41;;;;;;;2.80;1.60;;;;;;;-145.69;86.58;52563.22;5136959;27;20196;-83
2023/02/15 05:40:08;;;;;;;3.67;1.50;;;;;;;-145.69;87.09;52598.84;5136695;27;20200;-83
2023/02/15 05:42:36;;;;;;;4.03;1.13;;;;;;;-145.69;87.41;52567.16;5136692;27;20619;-83
2023/02/15 05:45:07;;;;;;;1.30;1.20;;;;;;;-145.69;84.68;52563.22;5136165;27;20197;-82
2023/02/15 05:47:36;;;;;;;6.10;1.50;;;;;;;-145.69;85.75;52559.25;5136496;27;20204;-81
2023/02/15 05:50:03;;;;;;;1.93;1.03;;;;;;;-145.69;84.02;52547.38;5136073;27;20203;-81
2023/02/15 05:52:29;;;;;;;5.50;1.40;;;;;;;-145.69;89.22;52557.28;5136231;27;20193;-82
2023/02/15 05:54:56;;;;;;;3.17;1.50;;;;;;;-145.69;90.30;52557.28;5136467;27;20200;-83
2023/02/15 05:57:22;;;;;;;8.07;1.53;;;;;;;-145.69;91.08;52551.31;5137082;27;20622;-84
2023/02/15 05:59:50;;;;;;;1.40;1.23;;;;;;;-145.69;88.44;52539.44;5136865;27;20682;-83
2023/02/15 06:02:20;;;;;;;2.93;1.30;;;;;;;-145.69;87.38;52583.00;5136850;27;20207;-82
2023/02/15 06:04:46;;;;;;;3.50;1.53;;;;;;;-145.69;85.42;52559.25;5137651;27;20228;-83
2023/02/15 06:07:13;;;;;;;6.10;1.37;;;;;;;-145.69;85.55;52555.28;5137246;27;20224;-84
2023/02/15 06:09:42;;;;;;;2.90;1.27;;;;;;;-145.69;88.34;52561.22;5137048;27;20192;-84
2023/02/15 06:12:08;;;;;;;5.37;1.50;;;;;;;-145.69;94.19;52583.00;5137137;27;20400;-83
2023/02/15 06:14:35;;;;;;;2.17;1.47;;;;;;;-145.69;96.98;52590.94;5136420;27;20197;-84
2023/02/15 06:17:03;;;;;;;3.27;1.73;;;;;;;-145.69;94.40;52563.22;5136539;27;20575;-84
2023/02/15 06:19:29;;;;;;;2.23;1.33;;;;;;;-145.69;94.57;52559.25;5137022;27;20211;-84
2023/02/15 06:21:56;;;;;;;6.18;1.65;;;;;;;-145.69;94.95;52575.09;5136226;27;20429;-83
2023/02/15 06:24:22;;;;;;;3.33;1.40;;;;;;;-145.69;94.08;52588.97;5136942;27;20307;-83
2023/02/15 06:26:49;;;;;;;3.40;1.40;;;;;;;-145.69;92.12;52553.31;5135966;27;20200;-83
2023/02/15 06:29:15;;;;;;;1.33;1.13;;;;;;;-145.69;91.22;52563.22;5136188;27;20209;-84
2023/02/15 06:31:42;;;;;;;1.60;1.50;;;;;;;-145.69;91.68;52579.06;5136787;27;20208;-83
2023/02/15 06:34:10;;;;;;;8.57;1.60;;;;;;;-145.69;91.71;52579.06;5136142;27;20731;-83
2023/02/15 06:36:37;;;;;;;4.80;1.60;;;;;;;-145.69;92.42;52565.19;5136114;27;20204;-83
2023/02/15 06:39:06;;;;;;;2.13;1.50;;;;;;;-145.69;92.32;52585.00;5136540;27;20197;-84
2023/02/15 06:41:33;;;;;;;6.57;1.57;;;;;;;-145.69;92.28;52575.09;5136116;27;20223;-84
2023/02/15 06:44:00;;;;;;;4.20;1.43;;;;;;;-145.69;92.73;52577.06;5136091;27;20235;-84
2023/02/15 06:46:27;;;;;;;9.73;1.50;;;;;;;-145.69;89.94;52555.28;5135539;27;20188;-83
2023/02/15 06:48:59;;;;;;;13.63;1.63;;;;;;;-145.69;89.77;52586.97;5136250;27;20204;-84
2023/02/15 06:51:27;;;;;;;7.63;1.50;;;;;;;-145.69;89.39;52598.84;5135664;27;20220;-81
2023/02/15 06:53:53;;;;;;;3.20;1.53;;;;;;;-145.69;92.25;52541.44;5134964;27;20204;-83
2023/02/15 06:56:20;;;;;;;4.93;1.63;;;;;;;-145.69;91.33;52557.28;5134658;27;20224;-82
2023/02/15 06:58:53;;;;;;;3.93;1.87;;;;;;;-145.69;91.09;52557.28;5135127;27;20197;-82
2023/02/15 07:01:20;;;;;;;7.23;1.87;;;;;;;-145.69;85.17;52563.22;5135194;27;20208;-84
2023/02/15 07:03:49;;;;;;;4.63;1.47;;;;;;;-145.69;87.25;52586.97;5135611;27;20241;-82
2023/02/15 07:06:16;;;;;;;2.47;1.40;;;;;;;-145.69;86.87;52575.09;5135442;27;20185;-83
2023/02/15 07:08:45;;;;;;;5.93;1.80;;;;;;;-145.69;84.33;52557.28;5135907;27;20201;-83
2023/02/15 07:13:55;;;;;;;2.70;1.60;;;;;;;-145.69;87.73;52553.31;5135639;27;20193;-83
2023/02/15 07:16:21;;;;;;;1.97;1.33;;;;;;;-145.69;86.11;52539.44;5135393;27;20193;-83
2023/02/15 07:18:48;;;;;;;4.00;1.67;;;;;;;-145.69;87.09;52594.91;5134770;27;20204;-83
2023/02/15 07:21:15;;;;;;;1.97;1.30;;;;;;;-145.69;87.01;52581.03;5135156;27;20203;-83
2023/02/15 07:23:43;;;;;;;2.73;1.47;;;;;;;-145.69;86.52;52571.13;5134925;27;20311;-83
2023/02/15 07:26:14;;;;;;;4.13;2.00;;;;;;;-145.69;85.24;52559.25;5134808;27;20234;-83
2023/02/15 07:28:40;;;;;;;3.13;1.50;;;;;;;-145.69;82.08;52569.16;5134884;27;20303;-83
2023/02/15 07:31:07;;;;;;;3.80;1.80;;;;;;;-145.69;80.08;52527.56;5134569;27;20197;-84
2023/02/15 07:33:36;;;;;;;6.87;1.67;;;;;;;-145.69;80.55;52563.22;5134446;27;20207;-83
2023/02/15 07:36:05;;;;;;;4.10;1.40;;;;;;;-145.69;80.47;52541.44;5134639;27;20533;-83
2023/02/15 07:38:34;;;;;;;4.33;1.87;;;;;;;-145.69;80.69;52549.34;5134194;27;20201;-81
2023/02/15 07:41:00;;;;;;;4.33;1.43;;;;;;;-145.69;83.81;52563.22;5134516;27;20189;-84
2023/02/15 07:43:29;;;;;;;2.90;1.60;;;;;;;-145.69;83.60;52555.28;5134722;27;20199;-83
2023/02/15 07:45:55;;;;;;;2.57;1.40;;;;;;;-145.69;83.01;52535.47;5134570;27;20199;-83
2023/02/15 07:48:22;;;;;;;2.33;1.10;;;;;;;-145.69;87.34;52515.69;5133770;27;20208;-83
2023/02/15 07:50:50;;;;;;;4.63;1.20;;;;;;;-145.69;81.25;52586.97;5134390;27;20289;-82
2023/02/15 07:53:17;;;;;;;1.93;1.10;;;;;;;-145.69;73.24;52547.38;5133741;27;20548;-83
2023/02/15 07:55:43;;;;;;;9.30;1.50;;;;;;;-145.69;74.57;52555.28;5135051;27;20200;-85
2023/02/15 07:58:10;;;;;;;3.83;1.27;;;;;;;-145.69;74.50;52557.28;5134969;27;20201;-84
2023/02/15 08:03:23;;;;;;;2.07;1.30;;;;;;;-145.69;74.34;52529.53;5134123;27;20274;-84
2023/02/15 08:05:49;;;;;;;1.87;1.33;;;;;;;-145.69;78.11;52541.44;5134271;27;20582;-84
2023/02/15 08:13:59;;;;;;;3.23;1.17;;;;;;;-145.69;79.87;52531.53;5134467;27;20195;-83
2023/02/15 08:16:32;;;;;;;3.97;1.17;;;;;;;-145.69;79.05;52567.16;5135064;27;20806;-85
2023/02/15 08:19:00;;;;;;;1.20;1.10;;;;;;;-145.69;78.41;52571.13;5134558;27;20200;-83
2023/02/15 08:21:29;;;;;;;1.87;0.97;;;;;;;-145.69;76.08;52535.47;5134475;27;20192;-84
2023/02/15 08:23:59;;;;;;;4.53;1.27;;;;;;;-145.69;73.78;52539.44;5134092;28;20216;-84
2023/02/15 08:26:26;;;;;;;4.00;1.47;;;;;;;-145.69;73.64;52543.41;5134622;27;20292;-84
2023/02/15 08:28:53;;;;;;;4.80;1.50;;;;;;;-145.69;71.91;52557.28;5134397;27;20197;-83
2023/02/15 08:31:23;;;;;;;4.33;1.30;;;;;;;-145.69;70.99;52531.53;5134917;27;20200;-83
2023/02/15 08:33:52;;;;;;;5.23;1.30;;;;;;;-145.69;70.03;52535.47;5135514;27;20205;-84
2023/02/15 08:36:21;;;;;;;1.30;1.20;;;;;;;-145.69;67.32;52531.53;5135524;27;20741;-84
2023/02/15 08:38:48;;;;;;;4.23;1.17;;;;;;;-145.69;67.08;52511.72;5135204;27;20555;-84
2023/02/15 08:41:18;;;;;;;3.23;1.20;;;;;;;-145.69;67.26;52497.84;5134978;27;20200;-83
2023/02/15 08:43:46;;;;;;;1.83;1.10;;;;;;;-145.69;65.73;52495.88;5135334;27;20197;-84
2023/02/15 08:46:16;;;;;;;10.63;1.60;;;;;;;-145.69;62.56;52527.56;5133986;27;20184;-85
2023/02/15 08:48:43;;;;;;;2.77;1.20;;;;;;;-145.69;60.46;52515.69;5133879;27;20328;-88
2023/02/15 08:51:13;;;;;;;7.20;1.10;;;;;;;-145.69;60.23;52515.69;5138009;27;20200;-88
2023/02/15 08:53:41;;;;;;;4.83;1.60;;;;;;;-145.69;56.62;52537.47;5133807;27;20781;-86
2023/02/15 08:56:08;;;;;;;8.67;1.60;;;;;;;-145.69;55.06;52499.84;5138243;27;20227;-85
2023/02/15 08:58:36;;;;;;;3.00;1.20;;;;;;;-145.69;57.46;52482.00;5137870;27;20673;-85
2023/02/15 09:01:09;;;;;;;3.20;1.10;;;;;;;-145.69;56.44;52515.69;5137716;27;20643;-85
2023/02/15 09:03:36;;;;;;;7.90;1.10;;;;;;;-145.69;54.77;52517.66;5138016;27;20695;-84
2023/02/15 09:06:02;;;;;;;5.63;1.30;;;;;;;-145.69;56.48;52519.63;5137597;27;20676;-85
2023/02/15 09:08:31;;;;;;;1.87;1.17;;;;;;;-145.69;50.60;52517.66;5137439;27;20205;-83
2023/02/15 09:11:07;;;;;;;6.63;1.13;;;;;;;-145.69;50.32;52489.94;5137736;27;20213;-84
2023/02/15 09:13:34;;;;;;;2.60;1.10;;;;;;;-145.69;51.04;52511.72;5138297;27;20192;-84
2023/02/15 09:16:01;;;;;;;10.80;1.50;;;;;;;-145.69;49.17;52533.50;5137681;27;20201;-85
2023/02/15 09:18:28;;;;;;;5.27;1.20;;;;;;;-145.69;48.45;52511.72;5137852;27;20197;-86
2023/02/15 09:20:55;;;;;;;2.40;0.90;;;;;;;-145.69;48.73;52511.72;5136760;27;20197;-84
2023/02/15 09:23:21;;;;;;;6.53;1.20;;;;;;;-145.69;46.56;52480.03;5136959;27;20201;-83
2023/02/15 09:25:49;;;;;;;3.07;1.13;;;;;;;-145.69;47.92;52517.66;5136233;27;20235;-85
2023/02/15 09:28:16;;;;;;;1.60;1.00;;;;;;;-145.69;47.73;52503.81;5137628;27;20204;-85
2023/02/15 09:30:42;;;;;;;1.93;1.10;;;;;;;-145.69;46.07;52428.53;5136965;27;20200;-82
2023/02/15 09:33:10;;;;;;;2.47;1.77;;;;;;;-145.69;45.92;52470.13;5135963;27;20192;-83
2023/02/15 09:35:43;;;;;;;12.27;1.60;;;;;;;-145.69;44.74;52456.28;5136458;27;20215;-84
2023/02/15 09:38:11;;;;;;;8.57;1.50;;;;;;;-145.69;46.03;52474.09;5136136;27;20301;-83
2023/02/15 09:40:50;;;;;;;2.47;1.20;;;;;;;-145.69;46.43;52440.44;5136060;27;20200;-82
2023/02/15 09:43:33;;;;;;;2.13;0.90;;;;;;;-145.69;46.31;52468.16;5137270;27;20197;-83
2023/02/15 09:46:12;;;;;;;1.43;0.90;;;;;;;-145.69;43.57;52454.28;5137067;27;20230;-83
2023/02/15 09:48:45;;;;;;;6.40;2.50;;;;;;;-145.69;45.27;52472.13;5136715;27;20611;-83
2023/02/15 09:51:39;;;;;;;3.00;1.40;;;;;;;-145.69;42.66;52487.97;5136627;27;20220;-83
2023/02/15 09:54:30;;;;;;;1.70;1.00;;;;;;;-145.69;43.35;52497.84;5135946;27;20238;-82
2023/02/15 09:57:01;;;;;;;1.67;1.00;;;;;;;-145.69;42.62;52487.97;5136275;27;20193;-82
2023/02/15 09:59:35;;;;;;;4.97;1.10;;;;;;;-145.69;42.41;52460.22;5133325;27;20201;-83
2023/02/15 10:02:21;;;;;;;1.70;1.07;;;;;;;-145.69;42.22;52466.16;5118137;27;20562;-83
2023/02/15 10:05:01;;;;;;;2.60;0.93;;;;;;;-145.69;40.67;52422.59;5096090;28;20346;-81
2023/02/15 10:08:09;;;;;;;4.03;1.10;;;;;;;-145.69;40.13;52438.44;5094938;28;20201;-86
2023/02/15 10:10:45;;;;;;;1.80;1.03;;;;;;;-145.69;40.19;52468.16;5058930;28;20202;-82
2023/02/15 10:13:29;;;;;;;9.07;1.03;;;;;;;-145.69;40.19;52426.56;5086261;28;20194;-83
2023/02/15 10:16:12;;;;;;;0.80;0.77;;;;;;;-145.69;37.45;52460.22;5094170;28;20191;-82
2023/02/15 10:18:59;;;;;;;3.60;1.20;;;;;;;-145.69;35.67;52394.88;5094626;28;20277;-82
2023/02/15 10:21:40;;;;;;;2.20;1.20;;;;;;;-145.69;35.05;52418.63;5093258;28;20444;-83
2023/02/15 10:24:28;;;;;;;2.33;1.43;;;;;;;-145.69;35.20;52432.50;5094374;28;20224;-82
2023/02/15 10:26:59;;;;;;;2.80;1.20;;;;;;;-145.69;35.93;52381.00;5094366;28;20288;-83
2023/02/15 10:29:34;;;;;;;1.43;0.80;;;;;;;-145.69;35.42;52424.59;5074130;28;20225;-83
2023/02/15 10:32:16;;;;;;;2.67;1.20;;;;;;;-145.69;34.92;52434.47;5088504;28;20197;-83
2023/02/15 10:34:51;;;;;;;3.43;1.20;;;;;;;-145.69;34.29;52456.28;5094576;28;20197;-84
2023/02/15 10:37:53;;;;;;;5.57;1.08;;;;;;;-145.69;34.21;52406.75;5094170;28;20194;-82
2023/02/15 10:40:27;;;;;;;1.33;1.20;;;;;;;-145.69;33.48;52408.75;5089559;28;20197;-83
2023/02/15 10:43:15;;;;;;;2.67;1.00;;;;;;;-145.69;33.74;52400.81;5094394;28;20197;-83
2023/02/15 10:45:51;;;;;;;3.30;1.02;;;;;;;-145.69;31.46;52404.78;5094002;28;20222;-82
2023/02/15 10:48:39;;;;;;;4.43;1.40;;;;;;;-145.69;32.35;52379.03;5094021;28;20205;-83
2023/02/15 10:51:11;;;;;;;2.75;1.42;;;;;;;-145.69;32.24;52440.44;5093874;28;20190;-82
2023/02/15 10:54:03;;;;;;;2.88;1.20;;;;;;;-145.69;32.69;52394.88;5095078;28;20202;-84
2023/02/15 10:56:37;;;;;;;1.25;1.00;;;;;;;-145.69;33.21;52373.09;5094204;28;20214;-83
2023/02/15 10:59:26;;;;;;;3.05;1.13;;;;;;;-145.69;33.66;52402.78;5089015;28;20211;-81
2023/02/15 11:01:59;;;;;;;7.00;1.27;;;;;;;-145.69;33.19;52404.78;5085800;28;20229;-81
2023/02/15 11:04:45;;;;;;;2.33;1.08;;;;;;;-145.69;34.39;52392.91;5132111;27;20575;-84
2023/02/15 11:07:19;;;;;;;2.00;1.05;;;;;;;-145.69;34.70;52412.69;5133168;27;20486;-83
2023/02/15 11:09:50;;;;;;;2.83;1.00;;;;;;;-145.69;35.29;52396.84;5135998;27;20528;-86
2023/02/15 11:12:20;;;;;;;5.57;1.10;;;;;;;-145.69;33.78;52373.09;5137075;27;20212;-85
2023/02/15 11:14:51;;;;;;;2.17;1.20;;;;;;;-145.69;34.74;52388.94;5137223;27;20253;-85
2023/02/15 11:17:22;;;;;;;4.18;1.30;;;;;;;-145.69;34.02;52400.81;5135994;27;20239;-84
2023/02/15 11:19:57;;;;;;;1.95;1.10;;;;;;;-145.69;34.61;52386.97;5137204;27;20237;-87
2023/02/15 11:22:24;;;;;;;2.28;1.30;;;;;;;-145.69;32.56;52404.78;5136190;27;20215;-86
2023/02/15 11:24:54;;;;;;;2.90;1.65;;;;;;;-145.69;34.16;52392.91;5136486;27;20235;-82
2023/02/15 11:27:22;;;;;;;3.60;1.77;;;;;;;-145.69;33.36;52371.13;5135570;27;20288;-83
2023/02/15 11:29:58;;;;;;;4.00;2.22;;;;;;;-145.69;33.32;52402.78;5138220;27;20207;-83
2023/02/15 11:32:28;;;;;;;5.30;1.83;;;;;;;-145.69;34.56;52371.13;5137862;27;20558;-83
2023/02/15 11:35:02;;;;;;;4.03;1.50;;;;;;;-145.69;33.79;52398.84;5136855;27;20204;-83
2023/02/15 11:37:35;;;;;;;4.43;1.30;;;;;;;-145.69;34.31;52388.94;5136080;27;20590;-85
2023/02/15 11:40:03;;;;;;;2.38;1.33;;;;;;;-145.69;34.84;52381.00;5135211;27;20200;-85
2023/02/15 11:42:33;;;;;;;5.88;1.80;;;;;;;-145.69;34.19;52410.72;5135305;27;20193;-84
2023/02/15 11:45:05;;;;;;;5.32;1.40;;;;;;;-145.69;34.03;52394.88;5135187;27;20220;-84
2023/02/15 11:47:31;;;;;;;2.65;1.35;;;;;;;-145.69;33.51;52365.16;5135068;27;20207;-85
2023/02/15 11:50:01;;;;;;;2.92;1.23;;;;;;;-145.69;33.49;52365.16;5134856;27;20193;-85
2023/02/15 11:52:27;;;;;;;3.50;1.30;;;;;;;-145.69;33.77;52351.31;5135447;27;20578;-85
2023/02/15 11:54:54;;;;;;;1.92;1.58;;;;;;;-145.69;31.01;52390.91;5135179;27;20681;-85
2023/02/15 11:57:27;;;;;;;2.83;1.50;;;;;;;-145.69;32.07;52357.25;5135686;27;20200;-85
2023/02/15 11:59:58;;;;;;;2.08;1.38;;;;;;;-145.69;31.48;52353.28;5135653;27;20196;-86
2023/02/15 12:02:29;;;;;;;3.55;1.50;;;;;;;-145.69;32.10;52353.28;5135761;27;20208;-86
2023/02/15 12:04:59;;;;;;;3.35;1.92;;;;;;;-145.69;32.46;52343.38;5135854;28;20220;-85
2023/02/15 12:07:32;;;;;;;10.25;4.10;;;;;;;-145.69;33.24;52361.22;5134799;27;20200;-85
2023/02/15 12:10:06;;;;;;;8.57;2.05;;;;;;;-145.69;31.58;52341.41;5134640;28;20205;-84
2023/02/15 12:12:34;;;;;;;3.85;1.60;;;;;;;-145.69;30.88;52359.22;5134295;27;20207;-85
2023/02/15 12:15:03;;;;;;;2.95;1.60;;;;;;;-145.69;31.09;52377.06;5133037;27;20235;-85